Time;durP1;ratioP1;P1;durP2;ratioP2;P2;SDS_P1;SDS_P2;PMS_P1;PMS_P2;Temp;Humidity;BMP_temperature;BMP_pressure;BME280_temperature;BME280_humidity;BME280_pressure;Samples;Min_cycle;Max_cycle;Signal;HPM_P1;HPM_P2
2023/08/21 00:00:42;;;;;;;22.85;14.75;;;23.10;99.90;;;;;;5011806;28;21124;-74
2023/08/21 00:03:08;;;;;;;19.48;14.35;;;23.00;99.90;;;;;;5002505;28;20424;-74
2023/08/21 00:05:34;;;;;;;20.02;14.82;;;23.00;99.90;;;;;;4988788;28;20478;-74
2023/08/21 00:08:01;;;;;;;20.70;14.67;;;23.00;99.90;;;;;;4987454;28;21019;-74
2023/08/21 00:10:29;;;;;;;22.50;15.60;;;23.10;99.90;;;;;;4988869;28;20415;-74
2023/08/21 00:12:56;;;;;;;18.98;14.65;;;23.10;99.90;;;;;;5004917;28;20412;-74
2023/08/21 00:15:22;;;;;;;22.30;15.45;;;23.20;99.90;;;;;;4979798;28;20824;-74
2023/08/21 00:17:49;;;;;;;23.42;15.35;;;23.20;99.90;;;;;;4989918;28;20420;-74
2023/08/21 00:20:15;;;;;;;21.70;14.60;;;23.20;99.90;;;;;;5008175;28;20407;-74
2023/08/21 00:22:41;;;;;;;21.83;14.30;;;23.20;99.90;;;;;;4993725;28;20473;-73
2023/08/21 00:25:08;;;;;;;19.27;14.30;;;23.20;99.90;;;;;;5000130;28;20411;-74
2023/08/21 00:27:34;;;;;;;19.23;14.45;;;23.20;99.90;;;;;;5009456;28;21170;-74
2023/08/21 00:30:01;;;;;;;21.67;14.80;;;23.20;99.90;;;;;;5008929;28;20415;-74
2023/08/21 00:32:28;;;;;;;19.83;14.55;;;23.10;99.90;;;;;;5012507;28;20414;-73
2023/08/21 00:34:54;;;;;;;19.10;14.73;;;23.20;99.90;;;;;;5002852;28;20831;-74
2023/08/21 00:37:20;;;;;;;24.00;15.50;;;23.20;99.90;;;;;;5011079;28;20486;-74
2023/08/21 00:39:47;;;;;;;23.80;15.98;;;23.20;99.90;;;;;;4980511;28;20933;-74
2023/08/21 00:42:14;;;;;;;23.77;15.52;;;23.20;99.90;;;;;;5008954;28;20414;-74
2023/08/21 00:44:40;;;;;;;21.87;15.80;;;23.20;99.90;;;;;;5011781;28;20462;-74
2023/08/21 00:47:07;;;;;;;21.48;15.80;;;23.20;99.90;;;;;;5009548;28;20456;-73
2023/08/21 00:49:34;;;;;;;23.00;15.90;;;23.20;99.90;;;;;;5005264;28;20429;-74
2023/08/21 00:52:01;;;;;;;19.95;15.48;;;23.20;99.90;;;;;;5025424;28;20440;-73
2023/08/21 00:54:28;;;;;;;20.58;15.18;;;23.20;99.90;;;;;;4996719;28;20426;-74
2023/08/21 00:56:54;;;;;;;21.98;15.10;;;23.20;99.90;;;;;;5011971;28;20538;-74
2023/08/21 00:59:22;;;;;;;18.00;14.30;;;23.20;99.90;;;;;;5007779;28;20418;-74
2023/08/21 01:01:48;;;;;;;20.20;15.25;;;23.20;99.90;;;;;;5002732;28;20954;-74
2023/08/21 01:04:15;;;;;;;19.48;14.70;;;23.20;99.90;;;;;;5010308;28;20765;-74
2023/08/21 01:06:42;;;;;;;17.85;14.50;;;23.20;99.90;;;;;;5013017;28;20481;-74
2023/08/21 01:09:58;;;;;;;23.75;14.85;;;23.20;99.90;;;;;;4991916;28;20404;-74
2023/08/21 01:12:48;;;;;;;20.17;13.90;;;23.20;99.90;;;;;;4984554;28;20479;-74
2023/08/21 01:15:15;;;;;;;20.92;14.50;;;23.20;99.90;;;;;;4996659;28;20417;-74
2023/08/21 01:17:45;;;;;;;20.02;14.70;;;23.20;99.90;;;;;;4992205;28;20430;-74
2023/08/21 01:20:13;;;;;;;19.85;14.20;;;23.20;99.90;;;;;;5014980;28;20414;-73
2023/08/21 01:22:46;;;;;;;18.08;14.23;;;23.20;99.90;;;;;;5017370;28;20804;-74
2023/08/21 01:25:13;;;;;;;22.75;14.85;;;23.20;99.90;;;;;;4987144;28;20923;-74
2023/08/21 01:27:45;;;;;;;20.33;14.52;;;23.20;99.90;;;;;;4999687;28;20502;-74
2023/08/21 01:30:12;;;;;;;20.88;14.60;;;23.20;99.90;;;;;;4977801;28;20416;-74
2023/08/21 01:33:10;;;;;;;18.15;14.13;;;23.00;99.90;;;;;;5006914;28;20414;-74
2023/08/21 01:35:37;;;;;;;20.80;14.13;;;23.00;99.90;;;;;;5025564;28;20422;-73
2023/08/21 01:38:05;;;;;;;21.00;14.45;;;23.00;99.90;;;;;;5013986;28;21103;-75
2023/08/21 01:40:31;;;;;;;19.15;14.63;;;23.00;99.90;;;;;;5015610;28;20518;-74
2023/08/21 01:42:57;;;;;;;20.08;14.15;;;23.10;99.90;;;;;;4996681;28;20421;-73
2023/08/21 01:45:24;;;;;;;20.30;14.57;;;23.10;99.90;;;;;;4995604;28;20442;-73
2023/08/21 01:47:51;;;;;;;21.77;15.05;;;23.10;99.90;;;;;;5014408;28;20438;-73
2023/08/21 01:50:17;;;;;;;19.92;15.23;;;23.10;99.90;;;;;;5013639;28;20415;-73
2023/08/21 01:52:43;;;;;;;21.80;14.32;;;23.10;99.90;;;;;;4995596;28;21267;-73
2023/08/21 01:55:11;;;;;;;18.23;14.02;;;23.10;99.90;;;;;;4999092;28;20509;-73
2023/08/21 01:57:38;;;;;;;19.05;13.90;;;23.10;99.90;;;;;;4997663;28;20450;-73
2023/08/21 02:00:05;;;;;;;19.60;13.75;;;23.10;99.90;;;;;;5013848;28;20523;-73
2023/08/21 02:02:31;;;;;;;17.75;13.65;;;23.20;99.90;;;;;;5032943;28;20426;-73
2023/08/21 02:04:58;;;;;;;18.98;13.82;;;23.10;99.90;;;;;;5023909;28;20409;-73
2023/08/21 02:07:24;;;;;;;23.30;14.33;;;23.10;99.90;;;;;;4993582;28;20424;-73
2023/08/21 02:09:50;;;;;;;18.42;14.55;;;23.20;99.90;;;;;;5018488;28;20496;-73
2023/08/21 02:12:16;;;;;;;19.08;13.68;;;23.20;99.90;;;;;;5011628;28;20736;-73
2023/08/21 02:14:43;;;;;;;17.92;14.02;;;23.10;99.90;;;;;;5017542;28;20896;-73
2023/08/21 02:17:09;;;;;;;19.90;13.82;;;23.10;99.90;;;;;;5014050;28;21207;-73
2023/08/21 02:19:35;;;;;;;19.27;13.63;;;23.10;99.90;;;;;;5000649;28;20420;-73
2023/08/21 02:22:02;;;;;;;20.90;14.13;;;23.10;99.90;;;;;;5014306;28;20419;-73
2023/08/21 02:24:28;;;;;;;20.80;14.00;;;23.20;99.90;;;;;;4993410;28;21221;-73
2023/08/21 02:26:54;;;;;;;19.92;14.20;;;23.20;99.90;;;;;;4997565;28;20466;-73
2023/08/21 02:29:21;;;;;;;20.33;14.52;;;23.10;99.90;;;;;;5018160;28;20543;-73
2023/08/21 02:31:47;;;;;;;21.27;14.43;;;23.10;99.90;;;;;;5009954;28;20442;-73
2023/08/21 02:34:13;;;;;;;20.88;14.77;;;23.10;99.90;;;;;;4993905;28;20407;-73
2023/08/21 02:36:39;;;;;;;23.65;14.50;;;23.00;99.90;;;;;;5011198;28;20506;-73
2023/08/21 02:39:06;;;;;;;18.98;14.73;;;23.00;99.90;;;;;;5027757;28;20434;-73
2023/08/21 02:41:32;;;;;;;20.45;14.40;;;22.90;99.90;;;;;;5009044;28;20820;-73
2023/08/21 02:43:58;;;;;;;20.35;14.05;;;22.90;99.90;;;;;;4989321;28;20408;-73
2023/08/21 02:46:24;;;;;;;19.23;14.13;;;22.90;99.90;;;;;;5008960;28;20427;-73
2023/08/21 02:48:51;;;;;;;20.83;13.52;;;22.90;99.90;;;;;;5008978;28;20418;-73
2023/08/21 02:51:17;;;;;;;22.52;14.23;;;22.90;99.90;;;;;;5004143;28;20754;-73
2023/08/21 02:53:43;;;;;;;21.58;13.55;;;22.90;99.90;;;;;;5002165;28;21056;-73
2023/08/21 02:56:09;;;;;;;20.38;13.77;;;22.90;99.90;;;;;;5015420;28;20411;-73
2023/08/21 02:58:36;;;;;;;21.45;13.93;;;22.90;99.90;;;;;;5014535;28;20582;-73
2023/08/21 03:01:02;;;;;;;18.50;13.80;;;22.90;99.90;;;;;;5026941;28;20409;-73
2023/08/21 03:03:28;;;;;;;20.83;14.45;;;22.90;99.90;;;;;;5015689;28;20426;-73
2023/08/21 03:05:54;;;;;;;24.35;15.43;;;22.90;99.90;;;;;;4990640;28;20409;-73
2023/08/21 03:08:21;;;;;;;19.85;14.35;;;22.80;99.90;;;;;;5009320;28;20407;-73
2023/08/21 03:10:47;;;;;;;18.45;13.75;;;22.80;99.90;;;;;;5000075;28;20449;-73
2023/08/21 03:13:13;;;;;;;20.52;14.25;;;22.80;99.90;;;;;;5032305;28;20441;-73
2023/08/21 03:15:39;;;;;;;18.90;14.00;;;22.80;99.90;;;;;;5005128;28;20415;-73
2023/08/21 03:18:06;;;;;;;19.38;14.13;;;22.80;99.90;;;;;;5015104;28;20480;-73
2023/08/21 03:20:32;;;;;;;18.20;13.52;;;22.80;99.90;;;;;;5004026;28;20448;-73
2023/08/21 03:22:58;;;;;;;16.65;13.55;;;22.80;99.90;;;;;;4998397;28;20973;-73
2023/08/21 03:25:24;;;;;;;19.02;13.88;;;22.80;99.90;;;;;;5010924;28;20412;-73
2023/08/21 03:27:51;;;;;;;18.52;13.13;;;22.80;99.90;;;;;;4999264;28;20809;-73
2023/08/21 03:30:17;;;;;;;17.43;13.00;;;22.80;99.90;;;;;;5009283;28;20495;-73
2023/08/21 03:32:44;;;;;;;20.92;13.52;;;22.80;99.90;;;;;;5008708;28;20969;-73
2023/08/21 03:35:10;;;;;;;19.50;13.57;;;22.80;99.90;;;;;;4990929;28;20660;-73
2023/08/21 03:37:37;;;;;;;21.07;13.40;;;22.80;99.90;;;;;;5009590;28;20923;-73
2023/08/21 03:40:04;;;;;;;17.13;13.02;;;22.80;99.90;;;;;;5001016;28;20986;-73
2023/08/21 03:42:30;;;;;;;17.80;13.10;;;22.90;99.90;;;;;;4999329;28;20428;-73
2023/08/21 03:44:56;;;;;;;18.95;13.65;;;22.90;99.90;;;;;;4990783;28;20416;-73
2023/08/21 03:47:23;;;;;;;19.20;13.47;;;22.90;99.90;;;;;;5021695;28;20418;-73
2023/08/21 03:49:49;;;;;;;18.60;12.93;;;22.80;99.90;;;;;;5012950;28;20489;-73
2023/08/21 03:52:15;;;;;;;18.77;13.03;;;22.80;99.90;;;;;;5007027;28;20412;-73
2023/08/21 03:54:41;;;;;;;19.42;13.50;;;22.80;99.90;;;;;;4993300;28;20403;-73
2023/08/21 03:57:07;;;;;;;19.98;13.80;;;22.90;99.90;;;;;;5007295;28;20412;-73
2023/08/21 03:59:34;;;;;;;15.98;13.30;;;22.90;99.90;;;;;;4998640;28;20472;-73
2023/08/21 04:02:00;;;;;;;17.33;12.82;;;22.90;99.90;;;;;;5008291;28;20586;-73
2023/08/21 04:04:26;;;;;;;18.25;13.15;;;22.90;99.90;;;;;;5015825;28;20725;-73
2023/08/21 04:06:52;;;;;;;16.87;12.70;;;23.00;99.90;;;;;;5007184;28;21335;-73
2023/08/21 04:09:19;;;;;;;15.87;13.07;;;22.90;99.90;;;;;;4978228;28;20525;-73
2023/08/21 04:11:45;;;;;;;18.83;12.40;;;22.90;99.90;;;;;;5024380;28;20442;-73
2023/08/21 04:14:11;;;;;;;17.17;12.40;;;23.00;99.90;;;;;;4996448;28;20413;-73
2023/08/21 04:16:37;;;;;;;20.90;12.88;;;23.00;99.90;;;;;;4992949;28;20422;-73
2023/08/21 04:19:05;;;;;;;21.15;13.45;;;23.00;99.90;;;;;;5013931;28;20424;-73
2023/08/21 04:21:31;;;;;;;19.00;13.05;;;23.00;99.90;;;;;;4996781;28;20428;-73
2023/08/21 04:23:57;;;;;;;16.40;12.70;;;23.00;99.90;;;;;;5011628;28;20772;-73
2023/08/21 04:26:24;;;;;;;18.33;12.68;;;23.00;99.90;;;;;;5010790;28;20405;-73
2023/08/21 04:28:50;;;;;;;23.00;13.85;;;23.10;99.90;;;;;;5027374;28;20414;-73
2023/08/21 04:31:16;;;;;;;19.25;13.10;;;23.10;99.90;;;;;;5013856;28;20441;-73
2023/08/21 04:33:42;;;;;;;20.48;13.13;;;23.10;99.90;;;;;;5001816;28;20415;-73
2023/08/21 04:36:18;;;;;;;22.33;13.85;;;23.10;99.90;;;;;;5021682;28;20417;-73
2023/08/21 04:38:44;;;;;;;19.97;14.03;;;23.10;99.90;;;;;;4992772;28;20732;-73
2023/08/21 04:41:10;;;;;;;20.52;14.68;;;23.10;99.90;;;;;;5023100;28;20443;-73
2023/08/21 04:43:37;;;;;;;21.95;14.20;;;23.10;99.90;;;;;;5014130;28;20478;-73
2023/08/21 04:46:05;;;;;;;22.10;14.17;;;23.10;99.90;;;;;;4998702;28;20936;-73
2023/08/21 04:48:31;;;;;;;20.33;14.00;;;23.10;99.90;;;;;;4999485;28;20806;-74
2023/08/21 04:50:58;;;;;;;21.63;14.68;;;23.10;99.90;;;;;;5006155;28;20409;-73
2023/08/21 04:53:24;;;;;;;18.60;13.55;;;23.20;99.90;;;;;;5006262;28;20417;-73
2023/08/21 04:55:50;;;;;;;20.75;14.15;;;23.20;99.90;;;;;;5005881;28;20462;-73
2023/08/21 04:58:17;;;;;;;18.00;13.23;;;23.20;99.90;;;;;;4996391;28;20515;-74
2023/08/21 05:00:45;;;;;;;19.83;14.60;;;23.20;99.90;;;;;;5020006;28;20462;-73
2023/08/21 05:03:12;;;;;;;19.98;14.18;;;23.30;99.90;;;;;;5017316;28;20426;-73
2023/08/21 05:05:38;;;;;;;19.13;14.00;;;23.30;99.90;;;;;;4989644;28;20494;-73
2023/08/21 05:08:05;;;;;;;17.70;14.15;;;23.30;99.90;;;;;;5031677;28;20441;-73
2023/08/21 05:10:32;;;;;;;20.55;14.65;;;23.30;99.90;;;;;;5002203;28;20399;-73
2023/08/21 05:12:58;;;;;;;23.65;15.38;;;23.40;99.90;;;;;;5013037;28;20500;-73
2023/08/21 05:15:55;;;;;;;21.03;14.97;;;23.50;99.90;;;;;;5086286;27;20925;-73
2023/08/21 05:18:23;;;;;;;28.35;16.23;;;23.50;99.90;;;;;;5077731;28;21010;-73
2023/08/21 05:20:51;;;;;;;25.60;15.60;;;23.50;99.90;;;;;;5057079;28;20414;-73
2023/08/21 05:23:17;;;;;;;21.08;15.40;;;23.60;99.90;;;;;;5068719;28;20411;-73
2023/08/21 05:25:45;;;;;;;21.77;15.85;;;23.60;99.90;;;;;;5102420;27;20417;-73
2023/08/21 05:30:51;;;;;;;25.27;16.05;;;23.60;99.90;;;;;;5062976;27;20377;-73
2023/08/21 05:33:17;;;;;;;21.70;14.95;;;23.60;99.90;;;;;;5034039;28;20612;-73
2023/08/21 05:35:43;;;;;;;22.92;14.95;;;23.70;99.90;;;;;;5060265;28;20497;-73
2023/08/21 05:38:10;;;;;;;18.87;14.60;;;23.70;99.90;;;;;;5053263;28;20410;-73
2023/08/21 05:40:36;;;;;;;21.63;14.25;;;23.80;99.90;;;;;;5045208;28;20562;-73
2023/08/21 05:43:02;;;;;;;21.52;14.20;;;23.80;99.90;;;;;;5053104;28;20561;-73
2023/08/21 05:45:30;;;;;;;22.02;14.23;;;23.80;99.90;;;;;;5043428;28;20417;-73
2023/08/21 05:47:56;;;;;;;22.03;15.07;;;23.80;99.90;;;;;;5038011;28;20417;-73
2023/08/21 05:50:22;;;;;;;21.90;14.60;;;23.90;99.90;;;;;;5029051;28;20992;-73
2023/08/21 05:52:49;;;;;;;20.45;13.23;;;23.90;99.90;;;;;;5038871;28;20425;-73
2023/08/21 05:55:15;;;;;;;21.45;13.05;;;23.90;99.90;;;;;;5038948;28;20483;-74
2023/08/21 09:03:19;;;;;;;16.15;9.77;;;28.10;99.90;;;;;;5089447;27;20881;-74
2023/08/21 09:05:47;;;;;;;14.90;9.85;;;28.20;99.90;;;;;;5061240;28;20506;-74
2023/08/21 09:08:14;;;;;;;13.63;8.85;;;28.40;99.90;;;;;;5055970;28;20413;-74
2023/08/21 09:10:43;;;;;;;12.88;8.73;;;28.50;99.90;;;;;;5070237;28;20410;-74
2023/08/21 09:13:18;;;;;;;14.63;8.17;;;28.60;99.90;;;;;;5087883;28;21283;-74
2023/08/21 09:15:47;;;;;;;17.27;8.40;;;28.70;99.90;;;;;;5073260;28;20429;-74
2023/08/21 09:18:14;;;;;;;14.93;8.20;;;28.80;99.90;;;;;;5060075;28;20410;-74
2023/08/21 09:20:42;;;;;;;15.38;8.60;;;28.90;99.90;;;;;;5063849;28;20914;-74
2023/08/21 09:23:16;;;;;;;12.85;8.20;;;29.00;99.90;;;;;;5098688;28;20547;-74
2023/08/21 09:25:48;;;;;;;12.25;7.80;;;29.10;99.90;;;;;;5074020;28;20497;-75
